AirNav   Air Wisconsin pilot careers
 
 938 users online  

67AK South Hollywood Airport
Wasilla, Alaska, USA

GOING TO WASILLA?


FAA INFORMATION EFFECTIVE 23 MAY 2019

Location

FAA Identifier: 67AK
Lat/Long: 61-32-04.7000N / 149-40-12.3600W
61-32.078333N / 149-40.206000W
61.5346389 / -149.6701000
(estimated)
Elevation: 375 ft. / 114 m (estimated)
From city: 5 miles W of WASILLA, AK
Time zone: UTC -8 (UTC -9 during Standard Time)
Zip code: 99652

Airport Operations

Airport use: Private use. Permission required prior to landing
Activation date: 05/2004
Control tower: no
ARTCC: ANCHORAGE CENTER
FSS: KENAI FLIGHT SERVICE STATION [907-283-8469]
Attendance: UNATNDD
Segmented circle: no

Airport Communications

CTAF: 122.8
WX AWOS-3P at IYS (4 nm NE): 135.25 (907-373-3801)
WX AWOS-3P at BCV (8 nm SE): 135.55 (907-688-0826)
WX AWOS-3 at FRN (16 nm S): 134.25 or 118.525 (907-384-0132)
WX ASOS at PAQ (17 nm E): 134.75 (907-746-6675)
WX ASOS at MRI (20 nm S): 124.25 (907-271-5277)

Nearby radio navigation aids

VOR radial/distance  VOR name  Freq  Var
BGQr085/8.7BIG LAKE VORTAC112.5019E
TEDr003/23.5ANCHORAGE VOR/DME113.1518E

 
NDB name  Hdg/Dist  Freq  Var  ID
CAMPBELL LAKE010/24.433816ECMQ -.-. -- --.-

Airport Services

Runway Information

Runway E/W

Dimensions: 2640 x 240 ft. / 805 x 73 m
Surface: gravel
RUNWAY E  RUNWAY W
Traffic pattern: leftleft
Obstructions: 40 ft. trees40 ft. trees

Airport Ownership and Management from official FAA records

Ownership: Privately-owned
Owner: CROSS CREEK, INC
BOX 870948
WASILLA, AK 99687
Phone 907-376-2697
Manager: RODNEY WILLIS
4247 S EIDER CIR.
WASILLA, AK 99654
Phone (907) 357-5847

Airport Operational Statistics

Aircraft based on the field: 7
Single engine airplanes: 6
Helicopters: 1
    

Instrument Procedures

There are no published instrument procedures at 67AK.

Some nearby airports with instrument procedures:

PAGQ - Big Lake Airport (4 nm W)
PAWS - Wasilla Airport (4 nm NE)
PAFR - Bryant Army Airfield Heliport (16 nm S)
PAAQ - Warren "Bud" Woods Palmer Municipal Airport (17 nm E)
PAUO - Willow Airport (17 nm NW)
PAED - Elmendorf Air Force Base (17 nm S)
PAMR - Merrill Field Airport (20 nm S)
 
Loc | Ops | Rwys | IFR | FBO | Links
Com | Nav | Svcs | Stats | Notes

Crowley
 
Area around 67AK (South Hollywood Airport)
 
Road maps at: MapQuest Bing Google
 
Aerial photo
WARNING: Photo may not be current or correct
Aerial photo of 67AK (South Hollywood Airport)
Do you have a better or more recent aerial photo of South Hollywood Airport that you would like to share? If so, please send us your photo.

 
Sectional chart

 
Airport distance calculator
Flying to South Hollywood Airport? Find the distance to fly.

From to 67AK

Sunrise and sunset
Times for 25-May-2019
 Local
(UTC-8)
 Zulu
(UTC)
Morning civil twilight03:1411:14
Sunrise04:4512:45
Sunset23:0607:06
Evening civil twilight00:3708:37

Current date and time
Zulu (UTC)  26-May-2019 00:00:49
Local (UTC-8)  25-May-2019 16:00:49
 
METAR
PABV 
8nm SE 
252256Z AUTO 00000KT 9SM -RA OVC055 13/09 A3004 RMK AO2 SLP180 P0006 T01280089
PAFR 
16nm S 
252258Z AUTO 11009KT 5SM -RA OVC065 10/07 A3001 RMK AO2 SLP170 P0008 T01020069
PAAQ 
17nm E 
252353Z 14013KT 10SM -RA SCT045 OVC075 11/08 A3002 RMK AO2 SLP169 P0006 60006 T01060083 10178 20106 58001
PAED 
17nm S 
252256Z AUTO 24006KT 10SM -RA OVC065 11/09 A3003 RMK AO2 SLP165 P0004 T01100086
PAMR 
20nm S 
252353Z 32004KT 10SM BKN060 BKN075 OVC090 12/08 A3001 RMK AO2 RAE49 SLP163 P0001 60009 T01170078 10150 20106 58010
TAF
PAAQ 
17nm E 
251957Z 2520/2618 15015G25KT P6SM VCSH SCT050 BKN080 FM260900 12008KT 6SM -RA OVC030
PAED 
17nm S 
251900Z 2519/2701 VRB06KT 9999 BKN150 QNH3000INS BECMG 2521/2522 VRB06KT 9999 VCSH SCT050 BKN100 QNH2990INS BECMG 2522/2524 36009KT 6000 -RA SCT008 BKN020 620703 QNH2982INS TEMPO 2604/2618 4800 -RA BR BKN008 TX14/2522Z TN08/2618Z
NOTAMs
Click for the latest NOTAMs
NOTAMs are issued by the DoD/FAA and will open in a separate window not controlled by AirNav.

 

 
 

Would you like to see your business listed on this page?

 If your business provides an interesting product or service to pilots, flight crews, aircraft, or users of the South Hollywood Airport, you should consider listing it here.  To start the listing process, click on the button below
 
Add a business
 

Other Pages about South Hollywood Airport

Update a link
 
Copyright © AirNav, LLC. All rights reserved. Privacy Policy  Contact